createdAt,value
2022-08-05T00:00:16.215Z,23.53
2022-08-05T00:02:51.570Z,23.49
2022-08-05T00:06:02.890Z,23.47
2022-08-05T00:08:32.887Z,23.37
2022-08-05T00:10:56.479Z,23.23
2022-08-05T00:13:38.476Z,23.18
2022-08-05T00:16:08.989Z,23.11
2022-08-05T00:18:37.958Z,23.09
2022-08-05T00:21:05.352Z,23.12
2022-08-05T00:23:46.197Z,23.09
2022-08-05T00:26:20.596Z,22.96
2022-08-05T00:28:47.546Z,22.72
2022-08-05T00:31:16.539Z,22.45
2022-08-05T00:34:53.479Z,22.24
2022-08-05T00:37:11.391Z,22.16
2022-08-05T00:39:44.555Z,22.12
2022-08-05T00:42:32.733Z,21.93
2022-08-05T00:45:00.003Z,21.88
2022-08-05T00:47:49.197Z,21.57
2022-08-05T00:50:15.724Z,21.10
2022-08-05T00:52:45.518Z,20.89
2022-08-05T00:55:14.062Z,20.85
2022-08-05T00:57:58.751Z,20.63
2022-08-05T01:00:26.784Z,20.54
2022-08-05T01:02:53.804Z,20.49
2022-08-05T01:05:22.299Z,20.43
2022-08-05T01:08:42.369Z,20.58
2022-08-05T01:10:52.462Z,20.34
2022-08-05T01:13:27.178Z,20.42
2022-08-05T01:16:02.368Z,20.28
2022-08-05T01:18:34.275Z,20.28
2022-08-05T01:21:12.434Z,20.35
2022-08-05T01:24:14.231Z,20.30
2022-08-05T01:26:56.082Z,20.28
2022-08-05T01:29:31.656Z,20.34
2022-08-05T01:32:05.287Z,20.43
2022-08-05T01:34:45.436Z,20.42
2022-08-05T01:37:24.552Z,20.41
2022-08-05T01:39:58.907Z,20.33
2022-08-05T01:42:28.141Z,20.33
2022-08-05T01:44:59.171Z,20.30
2022-08-05T01:47:38.672Z,20.37
2022-08-05T01:50:15.684Z,20.43
2022-08-05T01:52:49.720Z,20.42
2022-08-05T01:55:20.210Z,20.42
2022-08-05T01:58:13.082Z,20.28
2022-08-05T02:00:41.886Z,20.31
2022-08-05T02:03:28.892Z,20.27
2022-08-05T02:06:03.764Z,20.25
2022-08-05T02:08:58.639Z,20.28
2022-08-05T02:11:33.135Z,20.26
2022-08-05T02:14:05.509Z,20.21
2022-08-05T02:16:39.680Z,20.14
2022-08-05T02:19:14.038Z,20.13
2022-08-05T02:21:49.241Z,20.12
2022-08-05T02:24:23.198Z,20.09
2022-08-05T02:26:54.099Z,20.07
2022-08-05T02:29:58.388Z,20.04
2022-08-05T02:32:24.187Z,20.14
2022-08-05T02:35:00.552Z,20.12
2022-08-05T02:37:38.773Z,20.14
2022-08-05T02:40:09.593Z,20.12
2022-08-05T02:42:37.677Z,20.04
2022-08-05T02:45:07.867Z,20.03
2022-08-05T02:48:07.476Z,19.95
2022-08-05T02:50:28.107Z,19.92
2022-08-05T02:52:56.107Z,19.98
2022-08-05T02:55:54.471Z,19.91
2022-08-05T02:58:13.429Z,19.91
2022-08-05T03:00:41.129Z,19.95
2022-08-05T03:03:16.774Z,19.94
2022-08-05T03:06:56.938Z,19.95
2022-08-05T03:08:31.919Z,20.03
2022-08-05T03:11:53.005Z,20.07
2022-08-05T03:13:51.412Z,20.10
2022-08-05T03:16:29.509Z,20.08
2022-08-05T03:19:00.044Z,20.07
2022-08-05T03:21:28.869Z,20.04
2022-08-05T03:24:03.456Z,20.01
2022-08-05T03:26:32.421Z,20.01
2022-08-05T03:28:59.794Z,19.94
2022-08-05T03:31:57.316Z,19.97
2022-08-05T03:34:15.968Z,19.96
2022-08-05T03:36:43.708Z,19.90
2022-08-05T03:39:12.953Z,19.87
2022-08-05T03:41:47.077Z,19.78
2022-08-05T03:44:19.903Z,19.87
2022-08-05T03:46:47.037Z,19.86
2022-08-05T03:49:17.245Z,19.81
2022-08-05T03:52:48.514Z,19.76
2022-08-05T03:56:01.873Z,19.68
2022-08-05T03:57:42.569Z,19.73
2022-08-05T04:00:16.019Z,19.69
2022-08-05T04:02:52.349Z,19.69
2022-08-05T04:05:33.421Z,19.75
2022-08-05T04:08:03.011Z,19.70
2022-08-05T04:10:37.578Z,19.76
2022-08-05T04:13:06.347Z,19.86
2022-08-05T04:15:36.396Z,19.89
2022-08-05T04:18:06.825Z,19.81
2022-08-05T04:20:36.103Z,19.69
2022-08-05T04:23:03.182Z,19.66
2022-08-05T04:25:56.654Z,19.66
2022-08-05T04:28:17.931Z,19.60
2022-08-05T04:30:45.149Z,19.54
2022-08-05T04:33:12.385Z,19.57
2022-08-05T04:36:11.205Z,19.55
2022-08-05T04:38:39.530Z,19.53
2022-08-05T04:41:07.343Z,19.56
2022-08-05T04:43:36.411Z,19.55
2022-08-05T04:46:04.616Z,19.60
2022-08-05T04:48:32.437Z,19.66
2022-08-05T04:51:11.023Z,19.62
2022-08-05T04:53:39.050Z,19.60
2022-08-05T04:56:33.068Z,19.66
2022-08-05T04:58:54.115Z,19.72
2022-08-05T05:01:33.810Z,19.74
2022-08-05T05:04:07.944Z,19.77
2022-08-05T05:06:44.950Z,19.82
2022-08-05T05:09:19.002Z,19.85
2022-08-05T05:11:53.912Z,19.87
2022-08-05T05:14:27.798Z,19.93
2022-08-05T05:16:59.282Z,19.96
2022-08-05T05:19:27.417Z,20.06
2022-08-05T05:22:23.591Z,20.16
2022-08-05T05:24:58.900Z,20.26
2022-08-05T05:27:44.415Z,20.21
2022-08-05T05:30:15.288Z,20.18
2022-08-05T05:32:56.919Z,20.17
2022-08-05T05:35:29.133Z,20.07
2022-08-05T05:38:05.493Z,20.07
2022-08-05T05:40:33.355Z,20.03
2022-08-05T05:43:02.306Z,20.11
2022-08-05T05:45:29.373Z,20.22
2022-08-05T05:48:05.559Z,20.33
2022-08-05T05:50:42.569Z,20.28
2022-08-05T05:53:21.637Z,20.38
2022-08-05T05:55:52.511Z,20.29
2022-08-05T05:58:31.639Z,20.22
2022-08-05T06:01:02.603Z,20.20
2022-08-05T06:04:01.198Z,20.17
2022-08-05T06:06:28.138Z,20.28
2022-08-05T06:08:59.724Z,20.39
2022-08-05T06:11:28.846Z,20.47
2022-08-05T06:13:56.225Z,20.45
2022-08-05T06:16:28.321Z,20.52
2022-08-05T06:19:00.039Z,20.53
2022-08-05T06:21:35.909Z,20.55
2022-08-05T06:24:11.416Z,20.59
2022-08-05T06:26:39.944Z,20.51
2022-08-05T06:29:26.454Z,20.44
2022-08-05T06:32:06.326Z,20.46
2022-08-05T06:34:53.634Z,20.54
2022-08-05T06:37:52.291Z,20.63
2022-08-05T06:40:13.006Z,20.64
2022-08-05T06:42:40.707Z,20.73
2022-08-05T06:45:09.288Z,20.85
2022-08-05T06:48:36.810Z,20.92
2022-08-05T06:50:23.718Z,21.01
2022-08-05T06:52:58.879Z,21.21
2022-08-05T06:55:36.412Z,21.31
2022-08-05T06:58:20.274Z,21.47
2022-08-05T07:00:51.109Z,21.56
2022-08-05T07:03:18.356Z,21.83
2022-08-05T07:05:46.446Z,21.96
2022-08-05T07:08:13.655Z,22.04
2022-08-05T07:10:52.746Z,22.21
2022-08-05T07:13:57.967Z,22.37
2022-08-05T07:18:02.278Z,22.50
2022-08-05T07:22:28.346Z,22.07
2022-08-05T07:24:58.136Z,22.00
2022-08-05T07:27:27.606Z,22.03
2022-08-05T07:30:27.321Z,-147.88
2022-08-05T07:32:57.549Z,-147.88
2022-08-05T07:36:05.158Z,-147.88
2022-08-05T07:38:12.394Z,22.03
2022-08-05T07:40:55.700Z,22.81
2022-08-05T07:43:29.979Z,22.79
2022-08-05T07:45:58.519Z,22.76
2022-08-05T07:49:01.021Z,22.76
2022-08-05T07:51:23.541Z,22.78
2022-08-05T07:54:02.976Z,22.73
2022-08-05T07:57:02.875Z,22.82
2022-08-05T07:59:23.212Z,22.89
2022-08-05T08:01:58.155Z,22.84
2022-08-05T08:04:37.602Z,22.77
2022-08-05T08:07:06.997Z,22.70
2022-08-05T08:09:34.351Z,22.60
2022-08-05T08:12:09.063Z,22.70
2022-08-05T08:14:46.765Z,22.90
2022-08-05T08:17:21.373Z,22.89
2022-08-05T08:20:43.574Z,22.98
2022-08-05T08:22:36.032Z,22.90
2022-08-05T08:25:03.941Z,22.89
2022-08-05T08:27:47.641Z,22.84
2022-08-05T08:30:34.160Z,22.82
2022-08-05T08:33:08.374Z,22.75
2022-08-05T08:35:40.893Z,22.69
2022-08-05T08:38:16.427Z,22.81
2022-08-05T08:40:51.478Z,22.64
2022-08-05T08:45:16.187Z,22.70
2022-08-05T08:46:09.810Z,22.76
2022-08-05T08:49:02.916Z,23.04
2022-08-05T08:52:06.181Z,23.14
2022-08-05T08:54:21.288Z,23.19
2022-08-05T08:56:56.507Z,23.03
2022-08-05T08:59:27.650Z,22.90
2022-08-05T09:02:08.559Z,22.91
2022-08-05T09:04:58.202Z,22.87
2022-08-05T09:07:28.377Z,22.86
2022-08-05T09:09:56.695Z,23.12
2022-08-05T09:12:27.352Z,23.04
2022-08-05T09:14:58.823Z,22.89
2022-08-05T09:17:42.911Z,22.77
2022-08-05T09:20:36.655Z,22.76
2022-08-05T09:23:09.059Z,22.79
2022-08-05T09:26:01.719Z,22.85
2022-08-05T09:28:32.350Z,22.97
2022-08-05T09:31:23.461Z,22.88
2022-08-05T09:33:58.640Z,23.04
2022-08-05T09:36:54.699Z,22.89
2022-08-05T09:39:39.577Z,23.04
2022-08-05T09:42:13.601Z,23.14
2022-08-05T09:44:56.302Z,23.08
2022-08-05T09:47:34.919Z,23.06
2022-08-05T09:50:37.745Z,23.23
2022-08-05T09:53:07.256Z,23.05
2022-08-05T09:55:57.652Z,23.16
2022-08-05T09:58:24.860Z,23.17
2022-08-05T10:00:57.561Z,23.21
2022-08-05T10:03:26.089Z,23.41
2022-08-05T10:06:15.519Z,23.46
2022-08-05T10:08:43.429Z,23.50
2022-08-05T10:11:21.662Z,23.55
2022-08-05T10:13:54.599Z,23.60
2022-08-05T10:16:31.015Z,23.59
2022-08-05T10:18:59.859Z,23.56
2022-08-05T10:21:35.253Z,23.63
2022-08-05T10:24:10.684Z,23.75
2022-08-05T10:26:49.104Z,23.90
2022-08-05T10:30:05.693Z,23.92
2022-08-05T10:32:52.721Z,24.09
2022-08-05T10:35:00.791Z,24.16
2022-08-05T10:37:44.315Z,24.30
2022-08-05T10:40:20.473Z,24.09
2022-08-05T10:42:59.709Z,23.89
2022-08-05T10:45:40.038Z,24.13
2022-08-05T10:48:52.612Z,24.22
2022-08-05T10:51:29.156Z,24.26
2022-08-05T10:54:01.085Z,24.43
2022-08-05T10:56:45.079Z,24.42
2022-08-05T11:00:04.184Z,24.04
2022-08-05T11:02:34.503Z,-147.88
2022-08-05T11:04:58.849Z,-147.88
2022-08-05T11:07:33.140Z,-147.88
2022-08-05T11:10:27.640Z,-147.88
2022-08-05T11:12:57.425Z,-147.88
2022-08-05T11:15:44.035Z,-147.88
2022-08-05T11:18:32.316Z,23.29
2022-08-05T11:21:00.271Z,23.41
2022-08-05T11:24:04.103Z,23.41
2022-08-05T11:26:31.995Z,23.43
2022-08-05T11:29:11.979Z,23.12
2022-08-05T11:31:58.617Z,23.05
2022-08-05T11:34:40.153Z,22.90
2022-08-05T11:38:29.053Z,22.80
2022-08-05T11:41:12.691Z,23.24
2022-08-05T11:44:04.551Z,23.33
2022-08-05T11:46:36.391Z,23.71
2022-08-05T11:49:06.177Z,24.24
2022-08-05T11:51:44.539Z,24.26
2022-08-05T11:54:32.861Z,24.79
2022-08-05T11:57:08.047Z,24.47
2022-08-05T11:59:51.152Z,24.31
2022-08-05T12:02:29.920Z,24.04
2022-08-05T12:04:59.890Z,23.91
2022-08-05T12:08:08.073Z,23.93
2022-08-05T12:10:18.351Z,23.72
2022-08-05T12:12:58.131Z,23.73
2022-08-05T12:15:38.074Z,23.85
2022-08-05T12:18:10.754Z,24.32
2022-08-05T12:20:38.889Z,24.27
2022-08-05T12:23:10.560Z,24.29
2022-08-05T12:25:49.832Z,24.64
2022-08-05T12:28:34.136Z,25.18
2022-08-05T12:31:02.801Z,25.23
2022-08-05T12:33:36.621Z,25.23
2022-08-05T12:36:08.496Z,24.91
2022-08-05T12:38:37.766Z,24.78
2022-08-05T12:41:13.187Z,25.01
2022-08-05T12:43:55.363Z,25.13
2022-08-05T12:46:28.105Z,25.31
2022-08-05T12:48:58.062Z,25.46
2022-08-05T12:52:11.111Z,25.93
2022-08-05T12:54:26.487Z,26.13
2022-08-05T12:56:56.044Z,26.55
2022-08-05T12:59:46.706Z,26.71
2022-08-05T13:02:15.646Z,27.31
2022-08-05T13:04:52.568Z,27.44
2022-08-05T13:07:47.824Z,26.36
2022-08-05T13:10:11.929Z,25.87
2022-08-05T13:12:42.490Z,25.05
2022-08-05T13:15:24.432Z,25.16
2022-08-05T13:18:04.157Z,25.50
2022-08-05T13:20:34.649Z,25.55
2022-08-05T13:23:01.818Z,25.73
2022-08-05T13:25:52.745Z,26.05
2022-08-05T13:28:22.446Z,25.92
2022-08-05T13:30:51.220Z,26.03
2022-08-05T13:34:21.710Z,24.90
2022-08-05T13:36:09.573Z,24.57
2022-08-05T13:38:41.967Z,24.93
2022-08-05T13:41:10.125Z,24.28
2022-08-05T13:43:44.163Z,24.38
2022-08-05T13:46:30.804Z,24.58
2022-08-05T13:49:09.808Z,24.16
2022-08-05T13:51:40.894Z,24.25
2022-08-05T13:54:12.742Z,24.00
2022-08-05T13:56:45.382Z,23.77
2022-08-05T13:59:20.044Z,23.99
2022-08-05T14:01:57.528Z,24.52
2022-08-05T14:04:49.500Z,24.24
2022-08-05T14:07:55.746Z,23.83
2022-08-05T14:10:05.468Z,23.94
2022-08-05T14:12:35.562Z,23.89
2022-08-05T14:16:03.874Z,23.87
2022-08-05T14:17:49.777Z,23.84
2022-08-05T14:20:18.607Z,24.72
2022-08-05T14:22:50.145Z,25.24
2022-08-05T14:25:21.739Z,25.55
2022-08-05T14:27:50.979Z,25.08
2022-08-05T14:30:20.482Z,24.40
2022-08-05T14:32:47.920Z,23.83
2022-08-05T14:35:16.295Z,24.24
2022-08-05T14:37:53.564Z,24.46
2022-08-05T14:40:24.286Z,24.30
2022-08-05T14:42:51.789Z,23.92
2022-08-05T14:45:18.821Z,23.44
2022-08-05T14:48:04.146Z,-147.88
2022-08-05T14:50:32.710Z,22.89
2022-08-05T14:53:01.311Z,23.34
2022-08-05T14:55:39.557Z,23.28
2022-08-05T14:58:10.941Z,23.82
2022-08-05T15:00:39.064Z,23.61
2022-08-05T15:03:25.962Z,23.44
2022-08-05T15:06:08.078Z,23.97
2022-08-05T15:08:58.008Z,24.70
2022-08-05T15:11:51.292Z,23.67
2022-08-05T15:14:20.186Z,23.31
2022-08-05T15:16:59.983Z,23.10
2022-08-05T15:19:27.010Z,23.46
2022-08-05T15:21:59.943Z,23.28
2022-08-05T15:24:29.123Z,23.15
2022-08-05T15:26:56.991Z,23.23
2022-08-05T15:29:29.799Z,22.98
2022-08-05T15:31:57.451Z,23.62
2022-08-05T15:34:32.255Z,22.64
2022-08-05T15:37:04.845Z,22.12
2022-08-05T15:41:03.884Z,22.34
2022-08-05T15:42:28.939Z,22.30
2022-08-05T15:45:11.429Z,23.30
2022-08-05T15:47:38.403Z,22.82
2022-08-05T15:50:07.247Z,23.28
2022-08-05T15:52:53.693Z,23.43
2022-08-05T15:55:24.539Z,22.86
2022-08-05T15:57:52.312Z,22.52
2022-08-05T16:00:32.775Z,21.82
2022-08-05T16:03:06.479Z,21.91
2022-08-05T16:05:33.468Z,21.75
2022-08-05T16:08:00.398Z,21.66
2022-08-05T16:10:29.592Z,21.53
2022-08-05T16:12:57.954Z,21.51
2022-08-05T16:15:24.901Z,21.46
2022-08-05T16:17:59.793Z,21.25
2022-08-05T16:20:27.877Z,21.61
2022-08-05T16:22:55.265Z,21.52
2022-08-05T16:25:33.964Z,21.20
2022-08-05T16:28:06.133Z,21.30
2022-08-05T16:30:34.254Z,21.37
2022-08-05T16:33:03.329Z,21.15
2022-08-05T16:35:32.286Z,21.10
2022-08-05T16:38:15.677Z,20.93
2022-08-05T16:40:55.695Z,20.99
2022-08-05T16:43:31.446Z,20.93
2022-08-05T16:46:04.850Z,21.01
2022-08-05T16:48:37.870Z,21.19
2022-08-05T16:51:09.194Z,21.18
2022-08-05T16:54:03.224Z,21.13
2022-08-05T16:56:26.500Z,21.05
2022-08-05T16:58:55.870Z,21.05
2022-08-05T17:01:24.322Z,21.13
2022-08-05T17:03:52.112Z,21.18
2022-08-05T17:06:19.462Z,21.38
2022-08-05T17:08:52.928Z,21.41
2022-08-05T17:11:23.906Z,21.44
2022-08-05T17:14:00.587Z,21.34
2022-08-05T17:16:36.733Z,21.26
2022-08-05T17:19:07.878Z,21.36
2022-08-05T17:21:37.647Z,21.23
2022-08-05T17:24:19.410Z,21.34
2022-08-05T17:26:56.335Z,21.43
2022-08-05T17:29:33.136Z,21.24
2022-08-05T17:32:02.647Z,-147.88
2022-08-05T17:34:32.054Z,-147.88
2022-08-05T17:36:59.632Z,-147.88
2022-08-05T17:39:29.784Z,-147.88
2022-08-05T17:42:18.348Z,-147.88
2022-08-05T17:44:50.192Z,-147.88
2022-08-05T17:47:22.275Z,20.93
2022-08-05T17:50:00.540Z,-147.88
2022-08-05T17:52:32.263Z,-147.88
2022-08-05T17:54:59.662Z,21.10
2022-08-05T17:57:27.687Z,21.01
2022-08-05T18:00:05.360Z,20.85
2022-08-05T18:02:34.650Z,20.75
2022-08-05T18:05:06.191Z,20.66
2022-08-05T18:07:42.146Z,20.63
2022-08-05T18:10:11.408Z,20.57
2022-08-05T18:12:39.170Z,20.65
2022-08-05T18:15:08.708Z,20.62
2022-08-05T18:17:58.889Z,20.48
2022-08-05T18:20:29.624Z,20.51
2022-08-05T18:23:08.749Z,20.50
2022-08-05T18:25:38.900Z,20.50
2022-08-05T18:28:06.885Z,20.47
2022-08-05T18:30:34.338Z,20.42
2022-08-05T18:33:02.793Z,20.28
2022-08-05T18:36:01.126Z,20.19
2022-08-05T18:38:19.097Z,20.14
2022-08-05T18:41:58.535Z,-147.88
2022-08-05T18:43:42.730Z,-147.88
2022-08-05T18:46:15.604Z,20.14
2022-08-05T18:48:51.797Z,19.81
2022-08-05T18:52:04.883Z,19.91
2022-08-05T18:54:25.211Z,19.96
2022-08-05T18:56:52.280Z,19.86
2022-08-05T18:59:50.647Z,19.93
2022-08-05T19:02:11.241Z,19.77
2022-08-05T19:05:03.207Z,19.70
2022-08-05T19:07:45.852Z,19.60
2022-08-05T19:10:13.875Z,19.57
2022-08-05T19:12:40.825Z,19.57
2022-08-05T19:15:25.212Z,19.60
2022-08-05T19:17:59.772Z,19.62
2022-08-05T19:20:41.466Z,19.67
2022-08-05T19:24:04.543Z,19.54
2022-08-05T19:26:02.174Z,19.61
2022-08-05T19:28:29.977Z,19.35
2022-08-05T19:30:58.001Z,19.21
2022-08-05T19:33:35.330Z,19.15
2022-08-05T19:36:06.178Z,19.12
2022-08-05T19:38:35.655Z,18.95
2022-08-05T19:41:07.205Z,18.96
2022-08-05T19:44:06.628Z,18.87
2022-08-05T19:46:30.160Z,18.83
2022-08-05T19:49:01.256Z,18.87
2022-08-05T19:52:13.316Z,18.61
2022-08-05T19:54:26.649Z,18.41
2022-08-05T19:56:57.910Z,18.42
2022-08-05T20:00:00.846Z,18.55
2022-08-05T20:02:13.280Z,18.49
2022-08-05T20:04:42.859Z,18.29
2022-08-05T20:07:13.477Z,18.24
2022-08-05T20:09:54.395Z,-147.88
2022-08-05T20:12:22.413Z,-147.88
2022-08-05T20:14:52.037Z,-147.88
2022-08-05T20:17:19.634Z,18.60
2022-08-05T20:19:50.867Z,18.53
2022-08-05T20:22:26.916Z,18.40
2022-08-05T20:24:55.263Z,18.34
2022-08-05T20:27:26.869Z,18.30
2022-08-05T20:29:58.292Z,-147.88
2022-08-05T20:32:27.092Z,18.11
2022-08-05T20:34:54.599Z,18.14
2022-08-05T20:38:04.846Z,18.20
2022-08-05T20:40:11.539Z,18.10
2022-08-05T20:42:38.506Z,18.08
2022-08-05T20:45:07.338Z,18.30
2022-08-05T20:47:35.348Z,18.39
2022-08-05T20:50:08.877Z,18.34
2022-08-05T20:52:39.282Z,18.31
2022-08-05T20:56:08.048Z,18.00
2022-08-05T20:57:57.259Z,17.91
2022-08-05T21:00:44.434Z,17.89
2022-08-05T21:03:11.932Z,17.68
2022-08-05T21:05:53.925Z,17.64
2022-08-05T21:08:26.610Z,17.73
2022-08-05T21:11:01.398Z,17.72
2022-08-05T21:13:48.497Z,17.57
2022-08-05T21:16:29.833Z,17.54
2022-08-05T21:18:59.879Z,17.45
2022-08-05T21:21:39.670Z,17.37
2022-08-05T21:24:12.682Z,17.31
2022-08-05T21:26:41.717Z,17.25
2022-08-05T21:29:10.155Z,17.23
2022-08-05T21:31:41.659Z,17.16
2022-08-05T21:34:10.498Z,17.12
2022-08-05T21:36:38.015Z,17.11
2022-08-05T21:39:05.097Z,17.07
2022-08-05T21:41:35.425Z,16.95
2022-08-05T21:44:05.141Z,16.91
2022-08-05T21:46:34.589Z,16.88
2022-08-05T21:49:02.106Z,16.79
2022-08-05T21:52:21.434Z,16.79
2022-08-05T21:54:18.838Z,16.71
2022-08-05T21:57:29.249Z,16.66
2022-08-05T22:00:04.016Z,16.62
2022-08-05T22:02:33.166Z,16.60
2022-08-05T22:05:00.523Z,16.51
2022-08-05T22:07:40.081Z,16.49
2022-08-05T22:10:16.935Z,16.41
2022-08-05T22:12:44.915Z,16.41
2022-08-05T22:16:01.704Z,16.30
2022-08-05T22:18:06.083Z,16.24
2022-08-05T22:20:35.722Z,16.27
2022-08-05T22:23:24.991Z,16.17
2022-08-05T22:26:30.380Z,16.13
2022-08-05T22:28:57.252Z,16.08
2022-08-05T22:31:30.306Z,16.10
2022-08-05T22:34:01.453Z,16.05
2022-08-05T22:36:29.318Z,15.98
2022-08-05T22:38:56.765Z,16.00
2022-08-05T22:42:04.994Z,15.93
2022-08-05T22:44:11.959Z,15.86
2022-08-05T22:46:41.091Z,15.79
2022-08-05T22:49:23.551Z,15.79
2022-08-05T22:52:05.861Z,15.73
2022-08-05T22:54:35.023Z,15.65
2022-08-05T22:57:02.873Z,15.64
2022-08-05T22:59:43.832Z,15.56
2022-08-05T23:02:28.738Z,15.54
2022-08-05T23:04:55.937Z,15.54
2022-08-05T23:07:22.836Z,15.43
2022-08-05T23:09:57.702Z,15.37
2022-08-05T23:12:32.816Z,15.32
2022-08-05T23:15:00.588Z,15.22
2022-08-05T23:17:34.917Z,15.14
2022-08-05T23:20:16.820Z,15.11
2022-08-05T23:22:47.169Z,15.10
2022-08-05T23:25:17.455Z,15.03
2022-08-05T23:28:03.039Z,14.99
2022-08-05T23:30:31.206Z,-147.88
2022-08-05T23:32:59.723Z,-147.88
2022-08-05T23:35:28.682Z,-147.88
2022-08-05T23:38:01.620Z,-147.88
2022-08-05T23:40:28.519Z,-147.88
2022-08-05T23:42:55.417Z,14.78
2022-08-05T23:45:23.786Z,14.73
2022-08-05T23:47:53.828Z,14.71
2022-08-05T23:50:31.394Z,14.63
2022-08-05T23:52:58.220Z,14.62
2022-08-05T23:55:30.941Z,14.56
2022-08-05T23:57:58.221Z,14.47
